Time;durP1;ratioP1;P1;durP2;ratioP2;P2;SDS_P1;SDS_P2;PMS_P1;PMS_P2;Temp;Humidity;BMP_temperature;BMP_pressure;BME280_temperature;BME280_humidity;BME280_pressure;Samples;Min_cycle;Max_cycle;Signal;HPM_P1;HPM_P2
2023/10/27 00:00:14;;;;;;;6.80;3.80;;;8.90;99.90;;;;;;5033162;28;20045;-55
2023/10/27 00:02:41;;;;;;;7.63;3.83;;;9.00;99.90;;;;;;5015801;28;20045;-49
2023/10/27 00:05:08;;;;;;;8.02;3.70;;;9.00;99.90;;;;;;5015817;28;20045;-56
2023/10/27 00:07:34;;;;;;;8.57;3.92;;;9.00;99.90;;;;;;5033261;28;20041;-51
2023/10/27 00:10:01;;;;;;;7.55;3.58;;;9.10;99.90;;;;;;5033191;28;20041;-54
2023/10/27 00:12:28;;;;;;;5.15;3.05;;;9.10;99.90;;;;;;5033224;28;20041;-53
2023/10/27 00:14:55;;;;;;;5.90;2.83;;;9.10;99.90;;;;;;5033170;28;20038;-55
2023/10/27 00:17:21;;;;;;;6.13;3.03;;;9.10;99.90;;;;;;5032686;28;20034;-51
2023/10/27 00:19:48;;;;;;;7.90;3.38;;;9.20;99.90;;;;;;5032779;28;20128;-54
2023/10/27 00:22:15;;;;;;;8.13;3.20;;;9.20;99.90;;;;;;5032672;28;20500;-52
2023/10/27 00:24:42;;;;;;;6.47;3.10;;;9.20;99.90;;;;;;5032846;28;20042;-52
2023/10/27 00:27:09;;;;;;;5.60;2.70;;;9.20;99.90;;;;;;5032858;28;20048;-52
2023/10/27 00:29:36;;;;;;;5.90;2.63;;;9.30;99.90;;;;;;5032529;28;20086;-51
2023/10/27 00:32:02;;;;;;;6.70;2.60;;;9.20;99.90;;;;;;5017924;28;20042;-52
2023/10/27 00:34:29;;;;;;;6.70;3.05;;;9.30;99.90;;;;;;5036867;28;20045;-54
2023/10/27 00:36:56;;;;;;;9.15;2.55;;;9.30;99.90;;;;;;5019524;28;20052;-54
2023/10/27 00:39:23;;;;;;;6.82;2.80;;;9.20;99.90;;;;;;5019220;28;20042;-54
2023/10/27 00:41:50;;;;;;;8.00;2.75;;;9.20;99.90;;;;;;5019448;28;20072;-52
2023/10/27 00:44:16;;;;;;;7.57;2.65;;;9.20;99.90;;;;;;5019011;28;20095;-53
2023/10/27 00:46:44;;;;;;;7.82;2.95;;;9.20;99.90;;;;;;5036733;28;20124;-51
2023/10/27 00:49:11;;;;;;;9.25;3.75;;;9.10;99.90;;;;;;5036160;28;20051;-52
2023/10/27 00:51:38;;;;;;;6.97;3.25;;;9.10;99.90;;;;;;5019370;28;20041;-50
2023/10/27 00:54:04;;;;;;;7.28;3.25;;;9.10;99.90;;;;;;5036968;28;20501;-50
2023/10/27 00:56:31;;;;;;;6.10;2.72;;;9.00;99.90;;;;;;5036390;28;20042;-53
2023/10/27 00:58:58;;;;;;;8.20;2.78;;;9.00;99.90;;;;;;5036342;28;20044;-53
2023/10/27 01:01:25;;;;;;;5.45;2.63;;;9.00;99.90;;;;;;5018372;28;20050;-54
2023/10/27 01:03:52;;;;;;;6.65;2.70;;;8.90;99.90;;;;;;5036474;28;20049;-53
2023/10/27 01:06:18;;;;;;;7.40;2.90;;;8.90;99.90;;;;;;5036880;28;20498;-54
2023/10/27 01:08:45;;;;;;;10.63;2.78;;;8.90;99.90;;;;;;5036501;28;20038;-50
2023/10/27 01:11:12;;;;;;;7.10;2.90;;;8.90;99.90;;;;;;5018484;28;20046;-52
2023/10/27 01:13:39;;;;;;;8.32;2.90;;;8.90;99.90;;;;;;5036380;28;20037;-51
2023/10/27 01:16:07;;;;;;;4.68;2.55;;;8.80;99.90;;;;;;5018716;28;20042;-51
2023/10/27 01:18:34;;;;;;;6.72;2.88;;;8.80;99.90;;;;;;5018942;28;20100;-54
2023/10/27 01:21:01;;;;;;;7.53;2.42;;;8.80;99.90;;;;;;5036375;28;20056;-51
2023/10/27 01:23:28;;;;;;;6.50;2.67;;;8.70;99.90;;;;;;5018728;28;20045;-54
2023/10/27 01:25:55;;;;;;;5.93;2.40;;;8.70;99.90;;;;;;5035982;28;20490;-54
2023/10/27 01:28:22;;;;;;;6.38;2.42;;;8.70;99.90;;;;;;5018192;28;20038;-53
2023/10/27 01:30:49;;;;;;;6.20;2.80;;;8.60;99.90;;;;;;5018453;28;20045;-51
2023/10/27 01:33:16;;;;;;;8.63;3.15;;;8.60;99.90;;;;;;5035842;28;20429;-51
2023/10/27 01:35:42;;;;;;;4.97;2.30;;;8.60;99.90;;;;;;5001387;28;20517;-52
2023/10/27 01:38:09;;;;;;;7.18;2.70;;;8.60;99.90;;;;;;5001589;28;20501;-51
2023/10/27 01:40:36;;;;;;;8.63;2.55;;;8.50;99.90;;;;;;5035514;28;20045;-53
2023/10/27 01:43:03;;;;;;;7.18;2.70;;;8.50;99.90;;;;;;5034856;28;20076;-50
2023/10/27 01:45:29;;;;;;;8.48;2.53;;;8.50;99.90;;;;;;5036181;28;20120;-53
2023/10/27 01:47:56;;;;;;;6.80;2.50;;;8.50;99.90;;;;;;5035819;28;20398;-54
2023/10/27 01:50:23;;;;;;;8.07;2.50;;;8.50;99.90;;;;;;5017474;28;20409;-54
2023/10/27 01:52:50;;;;;;;9.43;2.80;;;8.50;99.90;;;;;;5017955;28;20041;-52
2023/10/27 01:55:17;;;;;;;6.00;2.63;;;8.50;99.90;;;;;;5017591;28;20417;-53
2023/10/27 01:57:43;;;;;;;8.32;2.65;;;8.40;99.90;;;;;;5017344;28;20124;-54
2023/10/27 02:00:10;;;;;;;5.93;2.60;;;8.40;99.90;;;;;;5017532;28;20067;-51
2023/10/27 02:02:40;;;;;;;8.73;3.10;;;8.40;99.90;;;;;;5017775;28;20053;-53
2023/10/27 02:05:07;;;;;;;8.32;3.05;;;8.40;99.90;;;;;;5017779;28;20091;-51
2023/10/27 02:07:34;;;;;;;7.95;3.05;;;8.40;99.90;;;;;;5035381;28;20053;-52
2023/10/27 02:10:01;;;;;;;6.00;2.50;;;8.40;99.90;;;;;;5017119;28;20046;-51
2023/10/27 02:12:28;;;;;;;6.35;2.45;;;8.40;99.90;;;;;;5034228;28;20120;-53
2023/10/27 02:14:55;;;;;;;6.82;2.60;;;8.40;99.90;;;;;;5035133;28;20083;-50
2023/10/27 02:17:21;;;;;;;7.97;3.08;;;8.40;99.90;;;;;;5035249;28;20041;-50
2023/10/27 02:19:50;;;;;;;7.50;2.67;;;8.30;99.90;;;;;;5034880;28;20096;-53
2023/10/27 02:22:17;;;;;;;8.52;2.50;;;8.40;99.90;;;;;;5000807;28;20103;-49
2023/10/27 02:24:44;;;;;;;6.88;2.65;;;8.30;99.90;;;;;;5017327;28;20045;-49
2023/10/27 02:27:11;;;;;;;6.10;2.58;;;8.30;99.90;;;;;;5035130;28;20055;-49
2023/10/27 02:29:38;;;;;;;6.10;2.97;;;8.30;99.90;;;;;;5016856;28;20103;-48
2023/10/27 02:32:04;;;;;;;5.85;2.75;;;8.30;99.90;;;;;;5034372;28;20060;-53
2023/10/27 02:34:31;;;;;;;8.45;2.47;;;8.20;99.90;;;;;;5035251;28;20034;-51
2023/10/27 02:36:58;;;;;;;6.43;2.70;;;8.20;99.90;;;;;;5034192;28;20053;-50
2023/10/27 02:39:26;;;;;;;8.52;2.47;;;8.20;99.90;;;;;;5034428;28;20057;-49
2023/10/27 02:41:52;;;;;;;6.05;2.67;;;8.20;99.90;;;;;;5034355;28;20045;-51
2023/10/27 02:44:19;;;;;;;8.70;2.60;;;8.20;99.90;;;;;;5016404;28;20145;-49
2023/10/27 02:46:47;;;;;;;6.22;2.58;;;8.20;99.90;;;;;;5017444;28;20068;-49
2023/10/27 02:49:14;;;;;;;7.82;2.88;;;8.10;99.90;;;;;;5016671;28;20397;-62
2023/10/27 02:51:41;;;;;;;5.63;2.40;;;8.10;99.90;;;;;;5034196;28;20038;-62
2023/10/27 02:54:07;;;;;;;7.55;2.70;;;8.10;99.90;;;;;;5016169;28;20550;-62
2023/10/27 02:56:34;;;;;;;11.25;2.58;;;8.10;99.90;;;;;;5034257;28;20049;-62
2023/10/27 02:59:03;;;;;;;6.28;2.53;;;8.10;99.90;;;;;;5034718;28;20045;-62
2023/10/27 03:01:31;;;;;;;5.65;2.20;;;8.10;99.90;;;;;;5016323;28;20163;-62
2023/10/27 03:03:58;;;;;;;6.93;2.53;;;8.10;99.90;;;;;;5016587;28;20056;-62
2023/10/27 03:06:25;;;;;;;8.73;2.72;;;8.00;99.90;;;;;;5016118;28;20045;-62
2023/10/27 03:08:51;;;;;;;11.90;3.00;;;8.00;99.90;;;;;;5034013;28;20042;-62
2023/10/27 03:11:18;;;;;;;7.03;2.42;;;8.00;99.90;;;;;;5000542;28;20040;-62
2023/10/27 03:13:45;;;;;;;7.88;2.47;;;8.10;99.90;;;;;;5016354;28;20136;-62
2023/10/27 03:16:16;;;;;;;8.73;2.40;;;8.00;99.90;;;;;;5016050;28;20064;-62
2023/10/27 03:18:43;;;;;;;9.50;2.85;;;8.00;99.90;;;;;;5016398;28;20084;-62
2023/10/27 03:21:11;;;;;;;6.00;2.40;;;8.00;99.90;;;;;;5033784;28;20033;-62
2023/10/27 03:23:38;;;;;;;5.88;2.38;;;8.00;99.90;;;;;;5016225;28;20045;-62
2023/10/27 03:26:04;;;;;;;7.63;2.50;;;8.00;99.90;;;;;;5033625;28;20082;-62
2023/10/27 03:28:32;;;;;;;9.40;2.33;;;8.00;99.90;;;;;;5034060;28;20081;-62
2023/10/27 03:30:59;;;;;;;11.18;2.60;;;8.00;99.90;;;;;;5016117;28;20044;-63
2023/10/27 03:33:26;;;;;;;7.03;2.65;;;8.00;99.90;;;;;;4999617;28;20042;-63
2023/10/27 03:35:52;;;;;;;7.05;2.53;;;8.00;99.90;;;;;;5033545;28;20042;-63
2023/10/27 03:38:19;;;;;;;4.72;2.10;;;8.00;99.90;;;;;;5033756;28;20040;-63
2023/10/27 03:40:48;;;;;;;8.65;2.40;;;8.00;99.90;;;;;;5015883;28;20538;-63
2023/10/27 03:43:15;;;;;;;7.97;2.38;;;8.00;99.90;;;;;;5033346;28;20037;-55
2023/10/27 03:45:42;;;;;;;5.68;2.10;;;8.00;99.90;;;;;;5015675;28;20136;-52
2023/10/27 03:48:09;;;;;;;7.40;2.20;;;8.10;99.90;;;;;;5033511;28;20466;-53
2023/10/27 03:50:36;;;;;;;9.93;2.78;;;8.10;99.90;;;;;;5016006;28;20065;-52
2023/10/27 03:53:03;;;;;;;6.10;2.20;;;8.10;99.90;;;;;;5029002;28;20038;-53
2023/10/27 03:55:30;;;;;;;8.65;3.38;;;8.10;99.90;;;;;;4995446;28;20037;-55
2023/10/27 03:57:57;;;;;;;7.63;2.30;;;8.20;99.90;;;;;;5013215;28;20129;-55
2023/10/27 04:00:24;;;;;;;6.80;2.47;;;8.20;99.90;;;;;;5013351;28;20045;-54
2023/10/27 04:02:51;;;;;;;11.70;2.30;;;8.20;99.90;;;;;;5013465;28;20482;-52
2023/10/27 04:05:18;;;;;;;7.10;2.20;;;8.30;99.90;;;;;;5012975;28;20046;-55
2023/10/27 04:07:45;;;;;;;7.93;2.58;;;8.30;99.90;;;;;;5013300;28;20050;-53
2023/10/27 04:10:12;;;;;;;5.88;2.10;;;8.30;99.90;;;;;;5013271;28;20042;-53
2023/10/27 04:12:39;;;;;;;6.15;2.22;;;8.40;99.90;;;;;;5013719;28;20088;-53
2023/10/27 04:15:06;;;;;;;9.05;2.45;;;8.40;99.90;;;;;;5013867;28;20483;-53
2023/10/27 04:17:32;;;;;;;7.25;2.13;;;8.50;99.90;;;;;;5013573;28;20080;-52
2023/10/27 04:19:59;;;;;;;5.10;2.17;;;8.50;99.90;;;;;;5013451;28;20133;-53
2023/10/27 04:22:26;;;;;;;10.52;2.33;;;8.50;99.90;;;;;;4996651;28;20045;-52
2023/10/27 04:24:53;;;;;;;7.93;2.28;;;8.60;99.90;;;;;;5013805;28;20072;-51
2023/10/27 04:27:19;;;;;;;7.90;2.22;;;8.60;99.90;;;;;;5013253;28;20653;-54
2023/10/27 04:29:46;;;;;;;7.28;2.30;;;8.50;99.90;;;;;;5013653;28;20038;-50
2023/10/27 04:32:15;;;;;;;4.90;1.92;;;8.50;99.90;;;;;;5013597;28;20041;-63
2023/10/27 04:34:42;;;;;;;6.57;2.30;;;8.60;99.90;;;;;;5013200;28;20483;-63
2023/10/27 04:37:10;;;;;;;4.80;2.00;;;8.60;99.90;;;;;;5013229;28;20364;-63
2023/10/27 04:39:37;;;;;;;6.20;2.28;;;8.60;99.90;;;;;;5013448;28;20037;-63
2023/10/27 04:42:04;;;;;;;8.10;2.10;;;8.60;99.90;;;;;;5013179;28;20042;-63
2023/10/27 04:44:35;;;;;;;6.97;2.20;;;8.60;99.90;;;;;;5013445;28;20493;-63
2023/10/27 04:47:01;;;;;;;8.02;2.22;;;8.60;99.90;;;;;;5013509;28;20475;-63
2023/10/27 04:49:28;;;;;;;5.30;1.65;;;8.60;99.90;;;;;;5013313;28;20046;-63
2023/10/27 04:51:55;;;;;;;10.70;2.28;;;8.70;99.90;;;;;;5012805;28;20053;-63
2023/10/27 04:54:22;;;;;;;9.63;1.92;;;8.70;99.90;;;;;;5013204;28;20053;-63
2023/10/27 04:56:49;;;;;;;10.43;2.10;;;8.80;99.90;;;;;;5012744;28;20490;-63
2023/10/27 04:59:16;;;;;;;10.05;2.17;;;8.90;99.90;;;;;;5013411;28;20120;-63
2023/10/27 05:01:42;;;;;;;9.32;2.10;;;9.00;99.90;;;;;;5012619;28;20071;-63
2023/10/27 05:04:09;;;;;;;10.88;2.75;;;9.10;99.90;;;;;;5012915;28;20037;-63
2023/10/27 05:06:36;;;;;;;10.63;2.35;;;9.10;99.90;;;;;;5012783;28;20046;-63
2023/10/27 05:09:03;;;;;;;10.75;1.70;;;9.20;99.90;;;;;;5012939;28;20096;-63
2023/10/27 05:11:30;;;;;;;6.90;1.90;;;9.20;99.90;;;;;;4995707;28;20125;-63
2023/10/27 05:13:57;;;;;;;12.43;2.50;;;9.20;99.90;;;;;;5013062;28;20045;-63
2023/10/27 05:16:24;;;;;;;13.38;2.30;;;9.30;99.90;;;;;;5012456;28;20504;-63
2023/10/27 05:18:50;;;;;;;12.82;2.13;;;9.30;99.90;;;;;;4998467;28;20152;-63
2023/10/27 05:21:17;;;;;;;14.30;2.53;;;9.30;99.90;;;;;;5016106;28;20041;-62
2023/10/27 05:23:44;;;;;;;11.57;2.03;;;9.30;99.90;;;;;;5016630;28;20045;-63
2023/10/27 05:26:11;;;;;;;10.60;2.38;;;9.30;99.90;;;;;;5016573;28;20041;-63
2023/10/27 05:28:38;;;;;;;9.65;1.90;;;9.30;99.90;;;;;;5016544;28;20048;-53
2023/10/27 05:31:05;;;;;;;12.15;2.15;;;9.40;99.90;;;;;;5016314;28;20041;-52
2023/10/27 05:33:32;;;;;;;8.55;2.40;;;9.40;99.90;;;;;;5016349;28;20129;-55
2023/10/27 05:35:58;;;;;;;8.48;1.90;;;9.40;99.90;;;;;;5015887;28;20049;-53
2023/10/27 05:38:25;;;;;;;11.05;1.90;;;9.50;99.90;;;;;;5016108;28;20042;-51
2023/10/27 05:40:53;;;;;;;9.13;2.03;;;9.50;99.90;;;;;;4998211;28;20050;-54
2023/10/27 05:43:20;;;;;;;7.95;1.90;;;9.60;99.90;;;;;;5016052;28;20486;-53
2023/10/27 05:45:47;;;;;;;12.23;2.05;;;9.60;99.90;;;;;;5015841;28;20046;-56
2023/10/27 05:48:13;;;;;;;10.20;2.22;;;9.60;99.90;;;;;;5015528;28;20132;-56
2023/10/27 05:50:40;;;;;;;12.07;2.40;;;9.70;99.90;;;;;;5016136;28;20037;-52
2023/10/27 05:53:07;;;;;;;9.65;1.83;;;9.70;99.90;;;;;;5015435;28;20042;-63
2023/10/27 05:55:34;;;;;;;10.38;2.10;;;9.70;99.90;;;;;;5015791;28;20515;-63
2023/10/27 05:58:01;;;;;;;12.68;1.67;;;9.70;99.90;;;;;;5015397;28;20046;-63
2023/10/27 06:00:29;;;;;;;8.40;2.25;;;9.70;99.90;;;;;;5015685;28;20459;-62
2023/10/27 06:02:56;;;;;;;8.05;1.95;;;9.70;99.90;;;;;;5015786;28;20042;-63
2023/10/27 06:05:23;;;;;;;8.45;2.30;;;9.60;99.90;;;;;;5014708;28;20399;-63
2023/10/27 06:07:50;;;;;;;11.30;2.55;;;9.60;99.90;;;;;;5014814;28;20042;-63
2023/10/27 06:10:17;;;;;;;12.13;1.98;;;9.60;99.90;;;;;;5015423;28;20042;-63
2023/10/27 06:12:43;;;;;;;11.68;2.38;;;9.60;99.90;;;;;;5015214;28;20042;-63
2023/10/27 06:15:10;;;;;;;9.00;2.08;;;9.60;99.90;;;;;;5015616;28;20042;-63
2023/10/27 06:17:37;;;;;;;9.25;2.30;;;9.60;99.90;;;;;;5015103;28;20108;-63
2023/10/27 06:20:04;;;;;;;12.02;2.35;;;9.60;99.90;;;;;;5015245;28;20052;-63
2023/10/27 06:22:44;;;;;;;10.38;2.08;;;9.60;99.90;;;;;;5015354;28;20042;-63
2023/10/27 06:25:11;;;;;;;12.30;2.40;;;9.60;99.90;;;;;;5013900;28;20049;-63
2023/10/27 06:27:38;;;;;;;9.10;1.98;;;9.50;99.90;;;;;;5013834;28;20383;-63
2023/10/27 06:30:05;;;;;;;10.43;1.92;;;9.50;99.90;;;;;;4995831;28;20033;-63
2023/10/27 06:32:31;;;;;;;9.77;2.03;;;9.50;99.90;;;;;;5013996;28;20038;-63
2023/10/27 06:34:58;;;;;;;10.48;1.90;;;9.50;99.90;;;;;;5013858;28;20433;-63
2023/10/27 06:37:26;;;;;;;8.82;1.90;;;9.50;99.90;;;;;;5013375;28;20038;-63
2023/10/27 06:39:58;;;;;;;6.38;1.88;;;9.50;99.90;;;;;;5014964;28;20041;-63
2023/10/27 06:42:26;;;;;;;7.32;1.92;;;9.50;99.90;;;;;;5015357;28;20053;-49
2023/10/27 06:44:54;;;;;;;8.13;2.28;;;9.40;99.90;;;;;;5014762;28;20132;-49
2023/10/27 06:47:20;;;;;;;8.75;2.42;;;9.40;99.90;;;;;;4997101;28;20050;-51
2023/10/27 06:49:49;;;;;;;7.78;2.30;;;9.30;99.90;;;;;;5014874;28;20049;-51
2023/10/27 06:52:16;;;;;;;8.88;2.70;;;9.40;99.90;;;;;;5014781;28;20216;-55
2023/10/27 06:54:43;;;;;;;7.82;2.72;;;9.30;99.90;;;;;;5015116;28;20050;-53
2023/10/27 06:57:10;;;;;;;7.35;2.05;;;9.30;99.90;;;;;;5014487;28;20434;-54
2023/10/27 06:59:37;;;;;;;4.85;1.90;;;9.30;99.90;;;;;;5014494;28;20053;-54
2023/10/27 07:02:04;;;;;;;6.18;2.50;;;9.30;99.90;;;;;;5014491;28;20038;-56
2023/10/27 07:04:31;;;;;;;9.20;2.70;;;9.30;99.90;;;;;;5014282;28;20053;-54
2023/10/27 07:06:57;;;;;;;12.00;2.85;;;9.30;99.90;;;;;;5014256;28;20443;-56
2023/10/27 07:09:26;;;;;;;8.30;2.38;;;9.30;99.90;;;;;;5013764;28;20352;-53
2023/10/27 07:11:53;;;;;;;6.07;2.60;;;9.40;99.90;;;;;;5014509;28;20554;-52
2023/10/27 07:14:22;;;;;;;8.82;3.05;;;9.40;99.90;;;;;;5014515;28;20038;-53
2023/10/27 07:16:51;;;;;;;7.45;2.42;;;9.40;99.90;;;;;;5014199;28;20117;-52
2023/10/27 07:19:19;;;;;;;10.50;3.00;;;9.40;99.90;;;;;;5014262;28;20053;-54
2023/10/27 07:21:47;;;;;;;8.75;3.10;;;9.50;99.90;;;;;;5014736;28;20082;-54
2023/10/27 07:24:14;;;;;;;11.43;3.08;;;9.60;99.90;;;;;;5014156;28;20042;-54
2023/10/27 07:26:41;;;;;;;8.85;2.97;;;9.70;99.90;;;;;;4996859;28;20034;-54
2023/10/27 07:29:08;;;;;;;11.88;3.08;;;9.70;99.90;;;;;;5013754;28;20046;-50
2023/10/27 07:31:34;;;;;;;12.52;3.00;;;9.80;99.90;;;;;;5013701;28;20093;-52
2023/10/27 07:34:02;;;;;;;7.28;2.75;;;9.80;99.90;;;;;;5014310;28;20042;-55
2023/10/27 07:36:29;;;;;;;10.77;3.67;;;9.80;99.90;;;;;;5013823;28;20077;-55
2023/10/27 07:38:57;;;;;;;9.73;3.45;;;9.80;99.90;;;;;;5013456;28;20449;-52
2023/10/27 07:41:23;;;;;;;7.38;3.67;;;9.90;99.90;;;;;;5012822;28;20109;-52
2023/10/27 07:43:50;;;;;;;14.63;3.85;;;9.90;99.90;;;;;;5013646;28;20050;-51
2023/10/27 07:46:17;;;;;;;7.60;3.28;;;9.90;99.90;;;;;;5013648;28;20052;-51
2023/10/27 07:48:44;;;;;;;9.65;4.18;;;9.90;99.90;;;;;;5014146;28;20053;-53
2023/10/27 07:51:11;;;;;;;8.43;4.07;;;9.90;99.90;;;;;;5013772;28;20501;-53
2023/10/27 07:53:38;;;;;;;9.55;4.30;;;10.00;99.90;;;;;;5013746;28;20080;-56
2023/10/27 07:56:08;;;;;;;14.02;4.80;;;9.90;99.90;;;;;;5013849;28;20525;-53
2023/10/27 07:58:35;;;;;;;9.40;4.75;;;10.00;99.90;;;;;;5013539;28;20046;-53
2023/10/27 08:01:05;;;;;;;8.50;4.32;;;10.00;99.90;;;;;;5013966;28;20088;-53
2023/10/27 08:03:33;;;;;;;12.05;4.93;;;10.00;99.90;;;;;;5014088;28;20184;-55
2023/10/27 08:06:02;;;;;;;10.45;5.30;;;10.10;99.90;;;;;;5013456;28;20191;-63
2023/10/27 08:08:29;;;;;;;9.98;5.20;;;10.10;99.90;;;;;;5013856;28;20077;-63
2023/10/27 08:10:57;;;;;;;8.05;5.20;;;10.20;99.90;;;;;;5013525;28;20048;-50
2023/10/27 08:13:24;;;;;;;10.95;5.32;;;10.20;99.90;;;;;;5013845;28;20058;-63
2023/10/27 08:15:50;;;;;;;20.75;9.32;;;10.30;99.90;;;;;;5013241;28;20077;-62
2023/10/27 08:18:17;;;;;;;13.68;6.65;;;10.40;99.90;;;;;;5012889;28;20172;-63
2023/10/27 08:20:44;;;;;;;12.90;6.25;;;10.40;99.90;;;;;;5013395;28;20054;-63
2023/10/27 08:23:11;;;;;;;30.88;25.42;;;10.50;99.90;;;;;;5012726;28;20054;-52
2023/10/27 08:25:38;;;;;;;17.73;13.10;;;10.50;99.90;;;;;;5011797;28;20042;-53
2023/10/27 08:28:06;;;;;;;13.05;7.97;;;10.60;99.90;;;;;;5012871;28;20510;-54
2023/10/27 08:30:33;;;;;;;11.70;7.32;;;10.70;99.90;;;;;;5022016;28;20038;-55
2023/10/27 08:33:00;;;;;;;16.70;6.70;;;10.70;99.90;;;;;;5012842;28;20038;-55
2023/10/27 08:35:27;;;;;;;10.13;6.40;;;10.80;99.90;;;;;;5006517;28;20049;-56
2023/10/27 08:37:54;;;;;;;9.48;4.72;;;10.90;99.90;;;;;;5006281;28;20109;-55
2023/10/27 08:40:21;;;;;;;9.38;3.35;;;10.90;99.90;;;;;;5012980;28;20049;-52
2023/10/27 08:42:49;;;;;;;13.55;3.22;;;11.00;99.90;;;;;;5013007;28;20497;-62
2023/10/27 08:45:16;;;;;;;6.13;2.30;;;11.00;99.90;;;;;;5012717;28;20120;-63
2023/10/27 08:47:42;;;;;;;5.75;2.00;;;11.00;99.90;;;;;;5012933;28;20116;-63
2023/10/27 08:50:10;;;;;;;6.75;1.83;;;10.90;99.90;;;;;;5012618;28;20495;-63
2023/10/27 08:52:36;;;;;;;4.88;1.45;;;10.80;99.90;;;;;;5014540;28;20042;-52
2023/10/27 08:55:03;;;;;;;7.20;1.80;;;10.80;99.90;;;;;;5016175;28;20037;-55
2023/10/27 08:57:30;;;;;;;3.47;1.35;;;10.80;99.90;;;;;;5016541;28;20070;-53
2023/10/27 08:59:57;;;;;;;4.07;1.63;;;10.70;99.90;;;;;;4998794;28;20597;-55
2023/10/27 09:02:24;;;;;;;6.57;1.58;;;10.70;99.90;;;;;;5016361;28;20042;-52
2023/10/27 09:04:50;;;;;;;5.40;1.30;;;10.80;99.90;;;;;;5016389;28;20042;-54
2023/10/27 09:07:21;;;;;;;5.47;1.80;;;10.70;99.90;;;;;;5030767;28;20056;-51
2023/10/27 09:09:47;;;;;;;8.27;2.30;;;10.70;99.90;;;;;;5016310;28;20407;-55
2023/10/27 09:12:14;;;;;;;3.85;1.90;;;10.70;99.90;;;;;;5015707;28;20038;-56
2023/10/27 09:14:41;;;;;;;9.88;3.15;;;10.80;99.90;;;;;;5016150;28;20096;-55
2023/10/27 09:17:08;;;;;;;6.90;2.30;;;10.80;99.90;;;;;;5015858;28;20086;-54
2023/10/27 09:19:34;;;;;;;5.75;2.70;;;10.80;99.90;;;;;;5015387;28;20375;-51
2023/10/27 09:22:05;;;;;;;4.63;1.95;;;10.80;99.90;;;;;;5015284;28;20042;-52
2023/10/27 09:24:32;;;;;;;5.82;1.98;;;10.90;99.90;;;;;;5016258;28;20121;-56
2023/10/27 09:27:02;;;;;;;7.28;2.20;;;10.90;99.90;;;;;;5015397;28;20038;-52
2023/10/27 09:29:31;;;;;;;5.28;2.47;;;11.00;99.90;;;;;;5015942;28;20092;-55
2023/10/27 09:31:58;;;;;;;5.10;2.40;;;11.00;99.90;;;;;;5015908;28;20405;-53
2023/10/27 09:34:25;;;;;;;6.18;2.10;;;11.00;99.90;;;;;;5015814;28;20042;-53
2023/10/27 09:36:52;;;;;;;7.20;1.90;;;11.00;99.90;;;;;;5015868;28;20443;-53
2023/10/27 09:39:23;;;;;;;4.95;1.40;;;11.10;99.90;;;;;;5015342;28;20037;-51
2023/10/27 09:41:50;;;;;;;4.45;1.85;;;11.10;99.90;;;;;;5015166;28;20058;-53
2023/10/27 09:44:20;;;;;;;4.72;1.50;;;11.10;99.90;;;;;;5015448;28;20530;-55
2023/10/27 09:46:47;;;;;;;4.25;1.60;;;11.10;99.90;;;;;;5015641;28;20445;-55
2023/10/27 09:49:13;;;;;;;4.03;2.20;;;11.10;99.90;;;;;;5015541;28;20050;-56
2023/10/27 09:51:42;;;;;;;3.10;1.10;;;11.20;99.90;;;;;;5009049;28;20042;-55
2023/10/27 09:54:09;;;;;;;2.15;1.10;;;11.20;99.90;;;;;;5015664;28;20053;-52
2023/10/27 09:56:35;;;;;;;4.25;1.50;;;11.20;99.90;;;;;;5015396;28;20045;-51
2023/10/27 09:59:02;;;;;;;3.00;1.30;;;11.20;99.90;;;;;;5015202;28;20053;-53
2023/10/27 10:01:29;;;;;;;3.47;1.40;;;11.20;99.90;;;;;;5015677;28;20092;-51
2023/10/27 10:03:56;;;;;;;4.97;1.30;;;11.30;99.90;;;;;;5014131;28;20384;-52
2023/10/27 10:06:23;;;;;;;3.10;1.30;;;11.30;99.90;;;;;;5015146;28;20049;-63
2023/10/27 10:09:02;;;;;;;2.90;1.10;;;11.40;99.90;;;;;;5009712;28;20442;-64
2023/10/27 10:11:28;;;;;;;4.85;1.40;;;11.40;99.90;;;;;;5015563;28;20038;-63
2023/10/27 10:13:55;;;;;;;2.47;1.10;;;11.50;99.90;;;;;;5014695;28;20505;-63
2023/10/27 10:16:22;;;;;;;3.00;1.10;;;11.50;99.90;;;;;;5015119;28;20088;-53
2023/10/27 10:18:49;;;;;;;2.55;1.08;;;11.50;99.90;;;;;;5014525;28;20081;-54
2023/10/27 10:21:16;;;;;;;2.55;0.90;;;11.50;99.90;;;;;;5014990;28;20049;-53
2023/10/27 10:23:44;;;;;;;2.53;1.05;;;11.60;99.90;;;;;;5014833;28;20042;-54
2023/10/27 10:26:11;;;;;;;3.60;1.02;;;11.70;99.90;;;;;;5008195;28;20041;-54
2023/10/27 10:28:39;;;;;;;2.55;1.20;;;11.70;99.90;;;;;;5015126;28;20069;-55
2023/10/27 10:31:06;;;;;;;3.55;2.00;;;11.80;99.90;;;;;;5007924;28;20438;-53
2023/10/27 10:33:34;;;;;;;3.53;1.20;;;11.90;99.90;;;;;;5008395;28;20042;-54
2023/10/27 10:36:03;;;;;;;2.28;1.02;;;11.90;99.90;;;;;;5008319;28;20088;-52
2023/10/27 10:38:32;;;;;;;4.85;1.00;;;12.00;99.90;;;;;;5014511;28;20382;-52
2023/10/27 10:40:59;;;;;;;3.70;1.02;;;12.10;99.90;;;;;;4997044;28;20049;-54
2023/10/27 10:43:36;;;;;;;3.65;1.90;;;12.10;99.90;;;;;;5013998;28;20410;-52
2023/10/27 10:46:03;;;;;;;2.35;1.48;;;12.20;99.90;;;;;;5014873;28;20053;-53
2023/10/27 10:48:30;;;;;;;5.22;2.30;;;12.20;99.90;;;;;;5013804;28;20049;-52
2023/10/27 10:50:59;;;;;;;2.75;1.05;;;12.30;99.90;;;;;;5012106;28;20034;-52
2023/10/27 10:53:26;;;;;;;4.57;1.23;;;12.30;99.90;;;;;;5013700;28;20495;-63
2023/10/27 10:55:53;;;;;;;2.50;1.08;;;12.30;99.90;;;;;;5014245;28;20045;-55
2023/10/27 10:58:20;;;;;;;4.32;1.20;;;12.40;99.90;;;;;;5013287;28;20471;-54
2023/10/27 11:00:48;;;;;;;3.83;1.60;;;12.40;99.90;;;;;;5029460;28;20505;-51
2023/10/27 11:03:15;;;;;;;2.22;0.93;;;12.40;99.90;;;;;;5014148;28;20068;-54
2023/10/27 11:05:41;;;;;;;2.85;1.10;;;12.40;99.90;;;;;;5014002;28;20124;-52
2023/10/27 11:08:08;;;;;;;2.88;1.08;;;12.40;99.90;;;;;;5014097;28;20073;-55
2023/10/27 11:10:35;;;;;;;3.90;1.20;;;12.50;99.90;;;;;;5013724;28;20149;-54
2023/10/27 11:13:03;;;;;;;3.08;1.23;;;12.60;99.90;;;;;;5011265;28;20037;-63
2023/10/27 11:15:30;;;;;;;2.42;1.17;;;12.70;99.90;;;;;;5013230;28;20057;-54
2023/10/27 11:17:56;;;;;;;3.80;1.20;;;12.80;99.90;;;;;;5014233;28;20057;-54
2023/10/27 11:20:23;;;;;;;2.83;1.30;;;12.90;99.90;;;;;;4996425;28;20093;-52
2023/10/27 11:22:50;;;;;;;3.00;0.90;;;12.90;99.90;;;;;;5013442;28;20045;-55
2023/10/27 11:25:17;;;;;;;2.83;1.00;;;13.00;99.90;;;;;;5007513;28;20400;-55
2023/10/27 11:27:44;;;;;;;3.95;1.00;;;13.10;99.90;;;;;;5013007;28;20096;-55
2023/10/27 11:30:10;;;;;;;4.50;1.00;;;13.10;99.90;;;;;;5013777;28;20034;-55
2023/10/27 11:32:38;;;;;;;2.33;0.82;;;13.20;99.90;;;;;;5013155;28;20053;-54
2023/10/27 11:35:05;;;;;;;3.47;1.10;;;13.20;99.90;;;;;;5014130;28;20092;-54
2023/10/27 11:37:32;;;;;;;2.15;0.90;;;13.30;99.90;;;;;;5013517;28;20054;-54
2023/10/27 11:39:59;;;;;;;3.38;0.80;;;13.40;99.90;;;;;;5028151;28;20133;-55
2023/10/27 11:42:25;;;;;;;3.30;0.77;;;13.50;99.90;;;;;;5013420;28;20072;-55
2023/10/27 11:44:52;;;;;;;2.47;0.70;;;13.50;99.90;;;;;;5013503;28;20141;-55
2023/10/27 11:47:19;;;;;;;2.65;0.80;;;13.50;99.90;;;;;;4995674;28;20072;-53
2023/10/27 11:49:46;;;;;;;1.92;0.80;;;13.50;99.90;;;;;;5000378;28;20046;-55
2023/10/27 11:52:14;;;;;;;3.42;1.13;;;13.50;99.90;;;;;;5013258;28;20115;-56
2023/10/27 11:54:41;;;;;;;5.32;1.00;;;13.60;99.90;;;;;;5012513;28;20117;-50
2023/10/27 11:57:08;;;;;;;2.40;0.70;;;13.60;99.90;;;;;;5013627;28;20537;-51
2023/10/27 11:59:35;;;;;;;1.92;0.80;;;13.50;99.90;;;;;;5012756;28;20046;-52
2023/10/27 12:02:02;;;;;;;1.52;0.50;;;13.50;99.90;;;;;;5013574;28;20069;-63
2023/10/27 12:04:29;;;;;;;1.63;0.60;;;13.50;99.90;;;;;;5012700;28;20125;-63
2023/10/27 12:06:57;;;;;;;4.45;0.80;;;13.50;99.90;;;;;;5013459;28;20096;-63
2023/10/27 12:09:23;;;;;;;1.70;0.60;;;13.50;99.90;;;;;;5012833;28;20057;-63
2023/10/27 12:11:51;;;;;;;2.70;1.10;;;13.50;99.90;;;;;;5013163;28;20050;-63
2023/10/27 12:14:18;;;;;;;2.58;0.63;;;13.40;99.90;;;;;;5012754;28;20042;-63
2023/10/27 12:16:44;;;;;;;2.17;0.75;;;13.40;99.90;;;;;;5013287;28;20042;-63
2023/10/27 12:19:13;;;;;;;3.28;0.82;;;13.40;99.90;;;;;;5012654;28;20104;-64
2023/10/27 12:21:41;;;;;;;3.38;0.80;;;13.40;99.90;;;;;;5013309;28;20117;-63
2023/10/27 12:24:08;;;;;;;2.00;0.60;;;13.40;99.90;;;;;;5012988;28;20463;-64
2023/10/27 12:26:35;;;;;;;8.27;1.10;;;13.40;99.90;;;;;;5012898;28;20070;-63
2023/10/27 12:29:04;;;;;;;2.42;0.88;;;13.30;99.90;;;;;;5017180;28;20054;-63
2023/10/27 12:31:32;;;;;;;5.15;0.90;;;13.30;99.90;;;;;;5016924;28;20052;-63
2023/10/27 12:33:59;;;;;;;4.55;1.10;;;13.30;99.90;;;;;;5016973;28;20499;-64
2023/10/27 12:36:26;;;;;;;2.95;0.88;;;13.40;99.90;;;;;;5016671;28;20057;-64
2023/10/27 12:38:53;;;;;;;4.13;1.27;;;13.40;99.90;;;;;;5016608;28;20463;-63
2023/10/27 12:41:19;;;;;;;5.25;1.10;;;13.50;99.90;;;;;;5016953;28;20447;-64
2023/10/27 12:43:47;;;;;;;6.22;1.45;;;13.50;99.90;;;;;;5016619;28;20049;-64
2023/10/27 12:46:13;;;;;;;4.55;0.90;;;13.60;99.90;;;;;;5016511;28;20042;-62
2023/10/27 12:48:41;;;;;;;3.47;1.20;;;13.50;99.90;;;;;;5031549;28;20050;-62